sensor_id;sensor_type;location;lat;lon;timestamp;P1;durP1;ratioP1;P2;durP2;ratioP2
23129;SDS011;11734;51.046;13.778;2023-08-07T00:02:24;3.23;;;2.37;;
23129;SDS011;11734;51.046;13.778;2023-08-07T00:04:52;3.10;;;2.53;;
23129;SDS011;11734;51.046;13.778;2023-08-07T00:07:19;2.77;;;2.30;;
23129;SDS011;11734;51.046;13.778;2023-08-07T00:09:45;2.77;;;2.53;;
23129;SDS011;11734;51.046;13.778;2023-08-07T00:12:12;2.97;;;2.43;;
23129;SDS011;11734;51.046;13.778;2023-08-07T00:14:39;3.03;;;2.20;;
23129;SDS011;11734;51.046;13.778;2023-08-07T00:17:06;2.60;;;2.33;;
23129;SDS011;11734;51.046;13.778;2023-08-07T00:19:34;2.50;;;2.30;;
23129;SDS011;11734;51.046;13.778;2023-08-07T00:22:01;2.33;;;2.13;;
23129;SDS011;11734;51.046;13.778;2023-08-07T00:24:28;2.70;;;2.50;;
23129;SDS011;11734;51.046;13.778;2023-08-07T00:26:55;2.17;;;1.97;;
23129;SDS011;11734;51.046;13.778;2023-08-07T00:29:22;2.40;;;2.13;;
23129;SDS011;11734;51.046;13.778;2023-08-07T00:31:49;2.27;;;2.07;;
23129;SDS011;11734;51.046;13.778;2023-08-07T00:34:16;2.30;;;2.10;;
23129;SDS011;11734;51.046;13.778;2023-08-07T00:36:43;2.20;;;2.00;;
23129;SDS011;11734;51.046;13.778;2023-08-07T00:39:10;2.60;;;2.20;;
23129;SDS011;11734;51.046;13.778;2023-08-07T00:41:38;2.30;;;1.93;;
23129;SDS011;11734;51.046;13.778;2023-08-07T00:44:05;2.80;;;2.20;;
23129;SDS011;11734;51.046;13.778;2023-08-07T00:46:33;2.00;;;1.90;;
23129;SDS011;11734;51.046;13.778;2023-08-07T00:49:00;2.20;;;2.00;;
23129;SDS011;11734;51.046;13.778;2023-08-07T00:51:28;2.03;;;1.93;;
23129;SDS011;11734;51.046;13.778;2023-08-07T00:53:55;2.20;;;2.00;;
23129;SDS011;11734;51.046;13.778;2023-08-07T00:56:23;2.97;;;2.03;;
23129;SDS011;11734;51.046;13.778;2023-08-07T00:58:50;2.27;;;2.07;;
23129;SDS011;11734;51.046;13.778;2023-08-07T01:01:17;3.00;;;2.40;;
23129;SDS011;11734;51.046;13.778;2023-08-07T01:03:45;2.73;;;2.53;;
23129;SDS011;11734;51.046;13.778;2023-08-07T01:06:12;3.10;;;2.80;;
23129;SDS011;11734;51.046;13.778;2023-08-07T01:08:39;3.17;;;2.87;;
23129;SDS011;11734;51.046;13.778;2023-08-07T01:14:11;2.80;;;2.60;;
23129;SDS011;11734;51.046;13.778;2023-08-07T01:17:11;3.30;;;3.00;;
23129;SDS011;11734;51.046;13.778;2023-08-07T01:19:43;2.70;;;2.50;;
23129;SDS011;11734;51.046;13.778;2023-08-07T01:22:11;3.20;;;2.90;;
23129;SDS011;11734;51.046;13.778;2023-08-07T01:24:41;3.83;;;3.00;;
23129;SDS011;11734;51.046;13.778;2023-08-07T01:35:47;3.03;;;2.70;;
23129;SDS011;11734;51.046;13.778;2023-08-07T01:38:16;2.77;;;2.40;;
23129;SDS011;11734;51.046;13.778;2023-08-07T01:40:45;3.13;;;2.53;;
23129;SDS011;11734;51.046;13.778;2023-08-07T01:43:13;2.80;;;2.60;;
23129;SDS011;11734;51.046;13.778;2023-08-07T01:45:40;2.73;;;2.33;;
23129;SDS011;11734;51.046;13.778;2023-08-07T01:48:07;3.27;;;2.50;;
23129;SDS011;11734;51.046;13.778;2023-08-07T01:50:34;2.80;;;2.60;;
23129;SDS011;11734;51.046;13.778;2023-08-07T01:53:02;3.00;;;2.70;;
23129;SDS011;11734;51.046;13.778;2023-08-07T01:55:29;3.23;;;2.73;;
23129;SDS011;11734;51.046;13.778;2023-08-07T01:57:56;2.53;;;2.33;;
23129;SDS011;11734;51.046;13.778;2023-08-07T02:00:23;3.07;;;2.73;;
23129;SDS011;11734;51.046;13.778;2023-08-07T02:02:50;3.00;;;2.70;;
23129;SDS011;11734;51.046;13.778;2023-08-07T02:05:17;2.93;;;2.63;;
23129;SDS011;11734;51.046;13.778;2023-08-07T02:07:44;4.17;;;2.90;;
23129;SDS011;11734;51.046;13.778;2023-08-07T02:10:11;2.93;;;2.73;;
23129;SDS011;11734;51.046;13.778;2023-08-07T02:12:38;2.90;;;2.70;;
23129;SDS011;11734;51.046;13.778;2023-08-07T02:15:05;4.13;;;3.17;;
23129;SDS011;11734;51.046;13.778;2023-08-07T02:17:33;3.90;;;3.60;;
23129;SDS011;11734;51.046;13.778;2023-08-07T02:20:00;3.50;;;3.10;;
23129;SDS011;11734;51.046;13.778;2023-08-07T02:22:26;3.73;;;3.43;;
23129;SDS011;11734;51.046;13.778;2023-08-07T02:24:54;4.50;;;4.10;;
23129;SDS011;11734;51.046;13.778;2023-08-07T02:27:20;3.83;;;3.43;;
23129;SDS011;11734;51.046;13.778;2023-08-07T02:29:47;3.90;;;3.60;;
23129;SDS011;11734;51.046;13.778;2023-08-07T02:32:14;5.10;;;4.27;;
23129;SDS011;11734;51.046;13.778;2023-08-07T02:34:41;4.47;;;4.07;;
23129;SDS011;11734;51.046;13.778;2023-08-07T02:37:09;4.23;;;3.80;;
23129;SDS011;11734;51.046;13.778;2023-08-07T02:39:35;4.07;;;3.67;;
23129;SDS011;11734;51.046;13.778;2023-08-07T02:42:02;4.10;;;3.70;;
23129;SDS011;11734;51.046;13.778;2023-08-07T02:44:29;3.97;;;3.57;;
23129;SDS011;11734;51.046;13.778;2023-08-07T02:46:56;3.80;;;3.50;;
23129;SDS011;11734;51.046;13.778;2023-08-07T02:49:24;4.27;;;3.87;;
23129;SDS011;11734;51.046;13.778;2023-08-07T02:51:51;4.20;;;3.80;;
23129;SDS011;11734;51.046;13.778;2023-08-07T02:54:18;4.37;;;3.97;;
23129;SDS011;11734;51.046;13.778;2023-08-07T02:56:45;4.53;;;3.80;;
23129;SDS011;11734;51.046;13.778;2023-08-07T02:59:12;4.60;;;4.07;;
23129;SDS011;11734;51.046;13.778;2023-08-07T03:01:39;4.23;;;3.83;;
23129;SDS011;11734;51.046;13.778;2023-08-07T03:04:06;4.50;;;4.10;;
23129;SDS011;11734;51.046;13.778;2023-08-07T03:06:33;4.13;;;3.80;;
23129;SDS011;11734;51.046;13.778;2023-08-07T03:09:00;3.97;;;3.63;;
23129;SDS011;11734;51.046;13.778;2023-08-07T03:11:27;4.47;;;3.57;;
23129;SDS011;11734;51.046;13.778;2023-08-07T03:13:53;3.80;;;3.50;;
23129;SDS011;11734;51.046;13.778;2023-08-07T03:16:20;5.07;;;3.80;;
23129;SDS011;11734;51.046;13.778;2023-08-07T03:18:47;3.47;;;3.17;;
23129;SDS011;11734;51.046;13.778;2023-08-07T03:21:14;5.60;;;3.97;;
23129;SDS011;11734;51.046;13.778;2023-08-07T03:23:41;3.43;;;3.13;;
23129;SDS011;11734;51.046;13.778;2023-08-07T03:26:10;2.70;;;2.50;;
23129;SDS011;11734;51.046;13.778;2023-08-07T03:28:45;2.97;;;2.37;;
23129;SDS011;11734;51.046;13.778;2023-08-07T03:31:15;3.03;;;2.73;;
23129;SDS011;11734;51.046;13.778;2023-08-07T03:33:43;3.30;;;2.70;;
23129;SDS011;11734;51.046;13.778;2023-08-07T03:36:11;4.13;;;2.50;;
23129;SDS011;11734;51.046;13.778;2023-08-07T03:38:39;3.57;;;2.70;;
23129;SDS011;11734;51.046;13.778;2023-08-07T03:41:06;3.67;;;2.53;;
23129;SDS011;11734;51.046;13.778;2023-08-07T03:43:35;2.70;;;2.50;;
23129;SDS011;11734;51.046;13.778;2023-08-07T03:46:02;2.63;;;2.43;;
23129;SDS011;11734;51.046;13.778;2023-08-07T03:48:30;2.77;;;2.43;;
23129;SDS011;11734;51.046;13.778;2023-08-07T03:51:06;2.37;;;2.17;;
23129;SDS011;11734;51.046;13.778;2023-08-07T03:53:45;2.77;;;2.50;;
23129;SDS011;11734;51.046;13.778;2023-08-07T03:56:13;2.70;;;2.07;;
23129;SDS011;11734;51.046;13.778;2023-08-07T03:58:40;2.50;;;2.30;;
23129;SDS011;11734;51.046;13.778;2023-08-07T04:01:07;3.50;;;2.57;;
23129;SDS011;11734;51.046;13.778;2023-08-07T04:03:34;2.97;;;2.37;;
23129;SDS011;11734;51.046;13.778;2023-08-07T04:06:02;2.77;;;2.47;;
23129;SDS011;11734;51.046;13.778;2023-08-07T04:08:31;3.33;;;2.33;;
23129;SDS011;11734;51.046;13.778;2023-08-07T04:11:02;2.50;;;2.30;;
23129;SDS011;11734;51.046;13.778;2023-08-07T04:13:32;2.40;;;2.20;;
23129;SDS011;11734;51.046;13.778;2023-08-07T04:16:00;3.13;;;2.60;;
23129;SDS011;11734;51.046;13.778;2023-08-07T04:18:28;3.13;;;2.73;;
23129;SDS011;11734;51.046;13.778;2023-08-07T04:20:56;2.90;;;2.70;;
23129;SDS011;11734;51.046;13.778;2023-08-07T04:23:23;4.17;;;3.67;;
23129;SDS011;11734;51.046;13.778;2023-08-07T04:25:51;4.20;;;3.80;;
23129;SDS011;11734;51.046;13.778;2023-08-07T04:28:19;3.80;;;3.50;;
23129;SDS011;11734;51.046;13.778;2023-08-07T04:30:48;3.80;;;3.40;;
23129;SDS011;11734;51.046;13.778;2023-08-07T04:33:20;4.53;;;3.17;;
23129;SDS011;11734;51.046;13.778;2023-08-07T04:35:47;3.73;;;3.40;;
23129;SDS011;11734;51.046;13.778;2023-08-07T04:38:15;3.67;;;3.33;;
23129;SDS011;11734;51.046;13.778;2023-08-07T04:40:46;6.33;;;3.77;;
23129;SDS011;11734;51.046;13.778;2023-08-07T04:43:14;4.80;;;3.60;;
23129;SDS011;11734;51.046;13.778;2023-08-07T04:45:42;3.80;;;3.33;;
23129;SDS011;11734;51.046;13.778;2023-08-07T04:48:11;4.07;;;3.67;;
23129;SDS011;11734;51.046;13.778;2023-08-07T04:50:38;4.37;;;3.87;;
23129;SDS011;11734;51.046;13.778;2023-08-07T04:53:06;5.67;;;5.10;;
23129;SDS011;11734;51.046;13.778;2023-08-07T04:55:33;5.37;;;4.40;;
23129;SDS011;11734;51.046;13.778;2023-08-07T04:58:00;14.83;;;11.87;;
23129;SDS011;11734;51.046;13.778;2023-08-07T05:00:27;6.67;;;4.67;;
23129;SDS011;11734;51.046;13.778;2023-08-07T05:02:55;5.83;;;5.20;;
23129;SDS011;11734;51.046;13.778;2023-08-07T05:05:22;5.90;;;5.30;;
23129;SDS011;11734;51.046;13.778;2023-08-07T05:07:49;6.87;;;5.30;;
23129;SDS011;11734;51.046;13.778;2023-08-07T05:10:17;6.97;;;5.40;;
23129;SDS011;11734;51.046;13.778;2023-08-07T05:12:43;5.63;;;5.07;;
23129;SDS011;11734;51.046;13.778;2023-08-07T05:15:10;6.17;;;5.30;;
23129;SDS011;11734;51.046;13.778;2023-08-07T05:17:37;7.17;;;5.60;;
23129;SDS011;11734;51.046;13.778;2023-08-07T05:20:22;5.70;;;5.10;;
23129;SDS011;11734;51.046;13.778;2023-08-07T05:22:49;6.47;;;4.77;;
23129;SDS011;11734;51.046;13.778;2023-08-07T05:25:16;6.10;;;5.47;;
23129;SDS011;11734;51.046;13.778;2023-08-07T05:27:44;5.23;;;4.43;;
23129;SDS011;11734;51.046;13.778;2023-08-07T05:30:11;5.83;;;4.60;;
23129;SDS011;11734;51.046;13.778;2023-08-07T05:32:40;4.87;;;4.47;;
23129;SDS011;11734;51.046;13.778;2023-08-07T05:35:07;5.53;;;4.20;;
23129;SDS011;11734;51.046;13.778;2023-08-07T05:37:35;5.50;;;4.47;;
23129;SDS011;11734;51.046;13.778;2023-08-07T05:40:02;5.57;;;4.53;;
23129;SDS011;11734;51.046;13.778;2023-08-07T05:42:30;5.30;;;4.80;;
23129;SDS011;11734;51.046;13.778;2023-08-07T05:44:58;7.73;;;4.30;;
23129;SDS011;11734;51.046;13.778;2023-08-07T05:47:25;5.73;;;4.00;;
23129;SDS011;11734;51.046;13.778;2023-08-07T05:49:52;5.50;;;4.20;;
23129;SDS011;11734;51.046;13.778;2023-08-07T05:52:18;4.60;;;3.90;;
23129;SDS011;11734;51.046;13.778;2023-08-07T05:54:46;4.33;;;3.87;;
23129;SDS011;11734;51.046;13.778;2023-08-07T05:57:14;4.63;;;3.77;;
23129;SDS011;11734;51.046;13.778;2023-08-07T05:59:41;4.10;;;3.80;;
23129;SDS011;11734;51.046;13.778;2023-08-07T06:02:08;4.27;;;3.87;;
23129;SDS011;11734;51.046;13.778;2023-08-07T06:04:37;3.63;;;3.33;;
23129;SDS011;11734;51.046;13.778;2023-08-07T06:07:04;3.60;;;3.30;;
23129;SDS011;11734;51.046;13.778;2023-08-07T06:09:32;3.80;;;3.50;;
23129;SDS011;11734;51.046;13.778;2023-08-07T06:12:00;3.87;;;3.30;;
23129;SDS011;11734;51.046;13.778;2023-08-07T06:14:45;4.07;;;2.87;;
23129;SDS011;11734;51.046;13.778;2023-08-07T06:17:12;4.20;;;3.03;;
23129;SDS011;11734;51.046;13.778;2023-08-07T06:19:39;4.77;;;3.00;;
23129;SDS011;11734;51.046;13.778;2023-08-07T06:22:06;4.27;;;2.80;;
23129;SDS011;11734;51.046;13.778;2023-08-07T06:24:33;3.30;;;3.00;;
23129;SDS011;11734;51.046;13.778;2023-08-07T06:27:00;4.13;;;3.07;;
23129;SDS011;11734;51.046;13.778;2023-08-07T06:29:28;3.30;;;3.00;;
23129;SDS011;11734;51.046;13.778;2023-08-07T06:31:55;3.33;;;3.10;;
23129;SDS011;11734;51.046;13.778;2023-08-07T06:34:22;3.27;;;2.80;;
23129;SDS011;11734;51.046;13.778;2023-08-07T06:36:49;2.73;;;2.53;;
23129;SDS011;11734;51.046;13.778;2023-08-07T06:39:16;3.37;;;2.90;;
23129;SDS011;11734;51.046;13.778;2023-08-07T06:41:43;3.23;;;2.93;;
23129;SDS011;11734;51.046;13.778;2023-08-07T06:44:11;3.03;;;2.80;;
23129;SDS011;11734;51.046;13.778;2023-08-07T06:46:38;3.47;;;2.83;;
23129;SDS011;11734;51.046;13.778;2023-08-07T06:49:05;2.90;;;2.70;;
23129;SDS011;11734;51.046;13.778;2023-08-07T06:51:32;2.90;;;2.60;;
23129;SDS011;11734;51.046;13.778;2023-08-07T06:53:59;3.10;;;2.80;;
23129;SDS011;11734;51.046;13.778;2023-08-07T06:56:26;2.80;;;2.60;;
23129;SDS011;11734;51.046;13.778;2023-08-07T06:58:52;3.17;;;2.37;;
23129;SDS011;11734;51.046;13.778;2023-08-07T07:01:20;3.17;;;2.80;;
23129;SDS011;11734;51.046;13.778;2023-08-07T07:03:47;3.00;;;2.43;;
23129;SDS011;11734;51.046;13.778;2023-08-07T07:06:19;2.87;;;2.67;;
23129;SDS011;11734;51.046;13.778;2023-08-07T07:08:47;2.40;;;2.20;;
23129;SDS011;11734;51.046;13.778;2023-08-07T07:11:14;3.03;;;2.70;;
23129;SDS011;11734;51.046;13.778;2023-08-07T07:13:41;2.67;;;2.20;;
23129;SDS011;11734;51.046;13.778;2023-08-07T07:16:08;2.80;;;2.03;;
23129;SDS011;11734;51.046;13.778;2023-08-07T07:18:38;2.40;;;2.20;;
23129;SDS011;11734;51.046;13.778;2023-08-07T07:21:05;2.90;;;2.13;;
23129;SDS011;11734;51.046;13.778;2023-08-07T07:23:32;2.20;;;2.00;;
23129;SDS011;11734;51.046;13.778;2023-08-07T07:26:17;2.23;;;2.03;;
23129;SDS011;11734;51.046;13.778;2023-08-07T07:28:44;2.17;;;1.97;;
23129;SDS011;11734;51.046;13.778;2023-08-07T07:31:11;2.20;;;2.00;;
23129;SDS011;11734;51.046;13.778;2023-08-07T07:33:38;2.27;;;2.07;;
23129;SDS011;11734;51.046;13.778;2023-08-07T07:36:07;2.70;;;2.30;;
23129;SDS011;11734;51.046;13.778;2023-08-07T07:38:34;2.43;;;2.23;;
23129;SDS011;11734;51.046;13.778;2023-08-07T07:41:00;2.90;;;2.07;;
23129;SDS011;11734;51.046;13.778;2023-08-07T07:43:27;2.10;;;2.00;;
23129;SDS011;11734;51.046;13.778;2023-08-07T07:45:54;2.30;;;2.10;;
23129;SDS011;11734;51.046;13.778;2023-08-07T07:48:21;2.40;;;2.20;;
23129;SDS011;11734;51.046;13.778;2023-08-07T07:50:48;1.70;;;1.60;;
23129;SDS011;11734;51.046;13.778;2023-08-07T07:53:15;3.70;;;1.57;;
23129;SDS011;11734;51.046;13.778;2023-08-07T07:55:46;1.90;;;1.80;;
23129;SDS011;11734;51.046;13.778;2023-08-07T07:58:13;2.17;;;1.70;;
23129;SDS011;11734;51.046;13.778;2023-08-07T08:00:40;1.97;;;1.67;;
23129;SDS011;11734;51.046;13.778;2023-08-07T08:03:07;2.00;;;1.80;;
23129;SDS011;11734;51.046;13.778;2023-08-07T08:05:34;4.80;;;1.90;;
23129;SDS011;11734;51.046;13.778;2023-08-07T08:08:01;2.10;;;1.67;;
23129;SDS011;11734;51.046;13.778;2023-08-07T08:10:28;1.43;;;1.33;;
23129;SDS011;11734;51.046;13.778;2023-08-07T08:12:55;3.60;;;1.80;;
23129;SDS011;11734;51.046;13.778;2023-08-07T08:15:22;2.90;;;1.73;;
23129;SDS011;11734;51.046;13.778;2023-08-07T08:17:50;1.87;;;1.43;;
23129;SDS011;11734;51.046;13.778;2023-08-07T08:20:18;1.40;;;1.27;;
23129;SDS011;11734;51.046;13.778;2023-08-07T08:22:45;1.53;;;1.43;;
23129;SDS011;11734;51.046;13.778;2023-08-07T08:25:13;1.20;;;1.20;;
23129;SDS011;11734;51.046;13.778;2023-08-07T08:27:40;1.40;;;1.30;;
23129;SDS011;11734;51.046;13.778;2023-08-07T08:30:08;1.63;;;1.40;;
23129;SDS011;11734;51.046;13.778;2023-08-07T08:32:35;2.90;;;1.30;;
23129;SDS011;11734;51.046;13.778;2023-08-07T08:35:03;1.80;;;1.60;;
23129;SDS011;11734;51.046;13.778;2023-08-07T08:37:30;1.83;;;1.50;;
23129;SDS011;11734;51.046;13.778;2023-08-07T08:39:57;1.50;;;1.40;;
23129;SDS011;11734;51.046;13.778;2023-08-07T08:42:25;2.80;;;1.47;;
23129;SDS011;11734;51.046;13.778;2023-08-07T08:44:53;1.60;;;1.50;;
23129;SDS011;11734;51.046;13.778;2023-08-07T08:47:21;1.90;;;1.40;;
23129;SDS011;11734;51.046;13.778;2023-08-07T08:49:50;1.50;;;1.40;;
23129;SDS011;11734;51.046;13.778;2023-08-07T08:52:18;1.50;;;1.40;;
23129;SDS011;11734;51.046;13.778;2023-08-07T08:54:46;1.80;;;1.60;;
23129;SDS011;11734;51.046;13.778;2023-08-07T08:57:14;2.73;;;1.63;;
23129;SDS011;11734;51.046;13.778;2023-08-07T08:59:41;3.00;;;1.60;;
23129;SDS011;11734;51.046;13.778;2023-08-07T09:02:09;1.40;;;1.30;;
23129;SDS011;11734;51.046;13.778;2023-08-07T09:04:36;1.63;;;1.43;;
23129;SDS011;11734;51.046;13.778;2023-08-07T09:07:04;1.37;;;1.20;;
23129;SDS011;11734;51.046;13.778;2023-08-07T09:09:32;1.10;;;1.10;;
23129;SDS011;11734;51.046;13.778;2023-08-07T09:12:00;1.27;;;1.17;;
23129;SDS011;11734;51.046;13.778;2023-08-07T09:14:28;1.10;;;1.00;;
23129;SDS011;11734;51.046;13.778;2023-08-07T09:16:58;1.80;;;1.20;;
23129;SDS011;11734;51.046;13.778;2023-08-07T09:19:26;1.50;;;1.27;;
23129;SDS011;11734;51.046;13.778;2023-08-07T09:21:54;1.23;;;1.10;;
23129;SDS011;11734;51.046;13.778;2023-08-07T09:24:21;1.73;;;1.33;;
23129;SDS011;11734;51.046;13.778;2023-08-07T09:26:50;1.93;;;1.50;;
23129;SDS011;11734;51.046;13.778;2023-08-07T09:29:20;1.17;;;1.13;;
23129;SDS011;11734;51.046;13.778;2023-08-07T09:31:47;1.90;;;1.40;;
23129;SDS011;11734;51.046;13.778;2023-08-07T09:34:14;1.20;;;1.10;;
23129;SDS011;11734;51.046;13.778;2023-08-07T09:36:46;3.10;;;1.10;;
23129;SDS011;11734;51.046;13.778;2023-08-07T09:39:14;1.30;;;1.20;;
23129;SDS011;11734;51.046;13.778;2023-08-07T09:41:41;1.30;;;1.20;;
23129;SDS011;11734;51.046;13.778;2023-08-07T09:44:09;2.90;;;1.10;;
23129;SDS011;11734;51.046;13.778;2023-08-07T09:46:43;1.17;;;1.10;;
23129;SDS011;11734;51.046;13.778;2023-08-07T09:49:11;1.20;;;1.10;;
23129;SDS011;11734;51.046;13.778;2023-08-07T09:51:42;1.33;;;1.07;;
23129;SDS011;11734;51.046;13.778;2023-08-07T09:54:09;2.43;;;1.17;;
23129;SDS011;11734;51.046;13.778;2023-08-07T09:56:38;1.00;;;0.90;;
23129;SDS011;11734;51.046;13.778;2023-08-07T09:59:05;1.60;;;1.00;;
23129;SDS011;11734;51.046;13.778;2023-08-07T10:01:36;0.90;;;0.90;;
23129;SDS011;11734;51.046;13.778;2023-08-07T10:04:05;1.20;;;1.10;;
23129;SDS011;11734;51.046;13.778;2023-08-07T10:06:34;1.20;;;1.10;;
23129;SDS011;11734;51.046;13.778;2023-08-07T10:09:01;1.13;;;1.10;;
23129;SDS011;11734;51.046;13.778;2023-08-07T10:11:30;1.37;;;1.20;;
23129;SDS011;11734;51.046;13.778;2023-08-07T10:13:58;1.73;;;1.13;;
23129;SDS011;11734;51.046;13.778;2023-08-07T10:16:25;1.30;;;1.20;;
23129;SDS011;11734;51.046;13.778;2023-08-07T10:18:54;0.93;;;0.80;;
23129;SDS011;11734;51.046;13.778;2023-08-07T10:21:23;1.10;;;1.00;;
23129;SDS011;11734;51.046;13.778;2023-08-07T10:23:52;1.07;;;0.90;;
23129;SDS011;11734;51.046;13.778;2023-08-07T10:26:20;1.07;;;1.07;;
23129;SDS011;11734;51.046;13.778;2023-08-07T10:28:49;1.27;;;1.17;;
23129;SDS011;11734;51.046;13.778;2023-08-07T10:31:17;2.00;;;1.10;;
23129;SDS011;11734;51.046;13.778;2023-08-07T10:33:45;0.83;;;0.83;;
23129;SDS011;11734;51.046;13.778;2023-08-07T10:36:15;0.77;;;0.77;;
23129;SDS011;11734;51.046;13.778;2023-08-07T10:38:43;1.23;;;1.17;;
23129;SDS011;11734;51.046;13.778;2023-08-07T10:41:14;1.30;;;1.20;;
23129;SDS011;11734;51.046;13.778;2023-08-07T10:43:45;1.27;;;1.17;;
23129;SDS011;11734;51.046;13.778;2023-08-07T10:46:20;1.10;;;1.00;;
23129;SDS011;11734;51.046;13.778;2023-08-07T10:48:54;1.30;;;1.20;;
23129;SDS011;11734;51.046;13.778;2023-08-07T10:51:29;1.63;;;1.40;;
23129;SDS011;11734;51.046;13.778;2023-08-07T10:53:57;1.10;;;1.00;;
23129;SDS011;11734;51.046;13.778;2023-08-07T10:56:31;1.93;;;1.20;;
23129;SDS011;11734;51.046;13.778;2023-08-07T10:59:03;1.30;;;1.20;;
23129;SDS011;11734;51.046;13.778;2023-08-07T11:04:05;1.47;;;1.27;;
23129;SDS011;11734;51.046;13.778;2023-08-07T11:06:33;2.57;;;1.30;;
23129;SDS011;11734;51.046;13.778;2023-08-07T11:09:04;2.03;;;1.00;;
23129;SDS011;11734;51.046;13.778;2023-08-07T11:11:36;1.00;;;1.00;;
23129;SDS011;11734;51.046;13.778;2023-08-07T11:14:12;2.23;;;1.27;;
23129;SDS011;11734;51.046;13.778;2023-08-07T11:16:39;0.90;;;0.90;;
23129;SDS011;11734;51.046;13.778;2023-08-07T11:19:07;1.63;;;1.30;;
23129;SDS011;11734;51.046;13.778;2023-08-07T11:21:35;2.20;;;1.27;;
23129;SDS011;11734;51.046;13.778;2023-08-07T11:24:02;1.00;;;1.00;;
23129;SDS011;11734;51.046;13.778;2023-08-07T11:26:30;0.97;;;0.90;;
23129;SDS011;11734;51.046;13.778;2023-08-07T11:28:58;1.07;;;1.03;;
23129;SDS011;11734;51.046;13.778;2023-08-07T11:31:26;0.90;;;0.90;;
23129;SDS011;11734;51.046;13.778;2023-08-07T11:33:54;1.00;;;1.00;;
23129;SDS011;11734;51.046;13.778;2023-08-07T11:36:22;1.00;;;1.00;;
23129;SDS011;11734;51.046;13.778;2023-08-07T11:38:49;0.90;;;0.90;;
23129;SDS011;11734;51.046;13.778;2023-08-07T11:41:17;1.20;;;1.10;;
23129;SDS011;11734;51.046;13.778;2023-08-07T11:43:45;1.30;;;1.20;;
23129;SDS011;11734;51.046;13.778;2023-08-07T11:46:14;1.53;;;1.20;;
23129;SDS011;11734;51.046;13.778;2023-08-07T11:48:42;1.57;;;1.20;;
23129;SDS011;11734;51.046;13.778;2023-08-07T11:51:09;1.30;;;1.20;;
23129;SDS011;11734;51.046;13.778;2023-08-07T11:53:37;1.67;;;1.20;;
23129;SDS011;11734;51.046;13.778;2023-08-07T11:56:08;1.87;;;1.30;;
23129;SDS011;11734;51.046;13.778;2023-08-07T11:58:37;1.60;;;1.50;;
23129;SDS011;11734;51.046;13.778;2023-08-07T12:01:14;1.27;;;1.07;;
23129;SDS011;11734;51.046;13.778;2023-08-07T12:03:55;1.87;;;1.50;;
23129;SDS011;11734;51.046;13.778;2023-08-07T12:06:23;1.30;;;1.20;;
23129;SDS011;11734;51.046;13.778;2023-08-07T12:08:55;1.33;;;1.23;;
23129;SDS011;11734;51.046;13.778;2023-08-07T12:11:23;1.60;;;1.30;;
23129;SDS011;11734;51.046;13.778;2023-08-07T12:13:51;1.53;;;1.43;;
23129;SDS011;11734;51.046;13.778;2023-08-07T12:16:18;1.53;;;1.17;;
23129;SDS011;11734;51.046;13.778;2023-08-07T12:18:46;1.60;;;1.30;;
23129;SDS011;11734;51.046;13.778;2023-08-07T12:21:14;1.40;;;1.30;;
23129;SDS011;11734;51.046;13.778;2023-08-07T12:23:43;1.60;;;1.30;;
23129;SDS011;11734;51.046;13.778;2023-08-07T12:26:11;1.30;;;1.10;;
23129;SDS011;11734;51.046;13.778;2023-08-07T12:28:38;1.17;;;1.03;;
23129;SDS011;11734;51.046;13.778;2023-08-07T12:31:05;0.80;;;0.80;;
23129;SDS011;11734;51.046;13.778;2023-08-07T12:33:36;1.33;;;0.87;;
23129;SDS011;11734;51.046;13.778;2023-08-07T12:36:03;0.87;;;0.87;;
23129;SDS011;11734;51.046;13.778;2023-08-07T12:38:44;1.67;;;0.80;;
23129;SDS011;11734;51.046;13.778;2023-08-07T12:41:11;0.57;;;0.57;;
23129;SDS011;11734;51.046;13.778;2023-08-07T12:43:43;0.77;;;0.77;;
23129;SDS011;11734;51.046;13.778;2023-08-07T12:46:10;1.43;;;0.80;;
23129;SDS011;11734;51.046;13.778;2023-08-07T12:48:40;0.90;;;0.90;;
23129;SDS011;11734;51.046;13.778;2023-08-07T12:51:08;1.00;;;1.00;;
23129;SDS011;11734;51.046;13.778;2023-08-07T12:53:35;1.10;;;1.00;;
23129;SDS011;11734;51.046;13.778;2023-08-07T12:56:03;1.10;;;0.90;;
23129;SDS011;11734;51.046;13.778;2023-08-07T12:58:32;0.83;;;0.83;;
23129;SDS011;11734;51.046;13.778;2023-08-07T13:01:00;1.00;;;0.90;;
23129;SDS011;11734;51.046;13.778;2023-08-07T13:03:27;1.00;;;1.00;;
23129;SDS011;11734;51.046;13.778;2023-08-07T13:05:54;0.80;;;0.80;;
23129;SDS011;11734;51.046;13.778;2023-08-07T13:08:22;0.93;;;0.93;;
23129;SDS011;11734;51.046;13.778;2023-08-07T13:10:49;0.90;;;0.90;;
23129;SDS011;11734;51.046;13.778;2023-08-07T13:13:16;1.00;;;1.00;;
23129;SDS011;11734;51.046;13.778;2023-08-07T13:15:43;0.80;;;0.80;;
23129;SDS011;11734;51.046;13.778;2023-08-07T13:18:11;0.70;;;0.70;;
23129;SDS011;11734;51.046;13.778;2023-08-07T13:20:40;0.70;;;0.70;;
23129;SDS011;11734;51.046;13.778;2023-08-07T13:23:07;0.90;;;0.90;;
23129;SDS011;11734;51.046;13.778;2023-08-07T13:25:35;2.10;;;0.90;;
23129;SDS011;11734;51.046;13.778;2023-08-07T13:28:03;0.80;;;0.80;;
23129;SDS011;11734;51.046;13.778;2023-08-07T13:30:33;0.70;;;0.70;;
23129;SDS011;11734;51.046;13.778;2023-08-07T13:33:03;1.03;;;1.00;;
23129;SDS011;11734;51.046;13.778;2023-08-07T13:35:30;1.00;;;0.90;;
23129;SDS011;11734;51.046;13.778;2023-08-07T13:38:01;0.67;;;0.67;;
23129;SDS011;11734;51.046;13.778;2023-08-07T13:40:32;0.50;;;0.50;;
23129;SDS011;11734;51.046;13.778;2023-08-07T13:42:59;0.60;;;0.60;;
23129;SDS011;11734;51.046;13.778;2023-08-07T13:45:33;0.70;;;0.70;;
23129;SDS011;11734;51.046;13.778;2023-08-07T13:48:01;0.70;;;0.70;;
23129;SDS011;11734;51.046;13.778;2023-08-07T13:50:28;0.70;;;0.70;;
23129;SDS011;11734;51.046;13.778;2023-08-07T13:52:56;0.70;;;0.70;;
23129;SDS011;11734;51.046;13.778;2023-08-07T13:55:39;0.53;;;0.53;;
23129;SDS011;11734;51.046;13.778;2023-08-07T13:58:06;1.33;;;1.03;;
23129;SDS011;11734;51.046;13.778;2023-08-07T14:00:35;0.80;;;0.80;;
23129;SDS011;11734;51.046;13.778;2023-08-07T14:03:03;0.67;;;0.67;;
23129;SDS011;11734;51.046;13.778;2023-08-07T14:05:30;0.47;;;0.47;;
23129;SDS011;11734;51.046;13.778;2023-08-07T14:07:58;0.53;;;0.53;;
23129;SDS011;11734;51.046;13.778;2023-08-07T14:10:25;0.70;;;0.50;;
23129;SDS011;11734;51.046;13.778;2023-08-07T14:12:52;1.33;;;0.70;;
23129;SDS011;11734;51.046;13.778;2023-08-07T14:15:20;2.33;;;1.07;;
23129;SDS011;11734;51.046;13.778;2023-08-07T14:17:47;2.33;;;1.00;;
23129;SDS011;11734;51.046;13.778;2023-08-07T14:20:15;2.77;;;1.00;;
23129;SDS011;11734;51.046;13.778;2023-08-07T14:22:44;0.93;;;0.93;;
23129;SDS011;11734;51.046;13.778;2023-08-07T14:25:11;1.60;;;1.10;;
23129;SDS011;11734;51.046;13.778;2023-08-07T14:27:39;0.97;;;0.87;;
23129;SDS011;11734;51.046;13.778;2023-08-07T14:30:06;2.17;;;1.20;;
23129;SDS011;11734;51.046;13.778;2023-08-07T14:32:34;0.70;;;0.70;;
23129;SDS011;11734;51.046;13.778;2023-08-07T14:35:01;1.07;;;0.80;;
23129;SDS011;11734;51.046;13.778;2023-08-07T14:37:28;1.83;;;1.53;;
23129;SDS011;11734;51.046;13.778;2023-08-07T14:39:55;1.60;;;1.40;;
23129;SDS011;11734;51.046;13.778;2023-08-07T14:42:23;1.17;;;1.03;;
23129;SDS011;11734;51.046;13.778;2023-08-07T14:44:50;1.20;;;1.07;;
23129;SDS011;11734;51.046;13.778;2023-08-07T14:47:18;2.20;;;1.10;;
23129;SDS011;11734;51.046;13.778;2023-08-07T14:49:45;1.53;;;1.07;;
23129;SDS011;11734;51.046;13.778;2023-08-07T14:52:12;1.20;;;0.80;;
23129;SDS011;11734;51.046;13.778;2023-08-07T14:54:39;0.90;;;0.90;;